GLACIER NATIONAL PARK
GARDEN WALL WX STATION
SHOULOW 6/23/2017
CLICK HERE TO VIEW GRAPH!!!
All data is provisional.
Wind sensor is not heated. Riming can occur.
        DATE  TIME Temp F Wind Speed Wind Dir Wind Gust     BATT  % RH Press InHg
                                                                                  
                       AVG        AVG      AVG       MAX      AVG   AVG        AVG

   6/23/2017 17:00      50          5      183        12    13.50    47      30.30
   6/23/2017 16:00      48          4      164        13    13.64    50      30.29
   6/23/2017 15:00      48          4      164        10    13.78    50      30.29
   6/23/2017 14:00      47          5      155        14    14.04    52      30.29
   6/23/2017 13:00      45          6      165        13    14.05    58      30.28
   6/23/2017 12:00      44          6      162        13    13.26    63      30.28
   6/23/2017 11:00      43          4      173         9    12.96    68      30.28
   6/23/2017 10:00      41          3      165         9    12.74    70      30.28
   6/23/2017 09:00      39          1       32         3    12.58    70      30.27
   6/23/2017 08:00      39          6       32        16    12.49    70      30.26
   6/23/2017 07:00      38         15       31        23    12.40    76      30.25
   6/23/2017 06:00      39          7        8        21    12.37    67      30.25
   6/23/2017 05:00      41          2      124         7    12.38    58      30.24
   6/23/2017 04:00      41          3      105         6    12.39    58      30.24
   6/23/2017 03:00      40          3      106         7    12.42    64      30.25
   6/23/2017 02:00      39          2       50         8    12.45    68      30.24
   6/23/2017 01:00      40          2      348         5    12.49    68      30.25
   6/22/2017 24:00      41          6       65        17    12.53    64      30.25
   6/22/2017 23:00      42          3      125         9    12.64    53      30.25
   6/22/2017 22:00      44          4       21        14    12.97    44      30.25
   6/22/2017 21:00      45          1       48         4    13.30    41      30.25
   6/22/2017 20:00      46          4      167         9    13.73    43      30.25
   6/22/2017 19:00      47          6      181        11    13.54    39      30.24
   6/22/2017 18:00      46          5      179        12    13.61    38      30.23
   6/22/2017 17:00      46          5      211        15    13.58    38      30.23
   6/22/2017 16:00      45          5      208        14    13.62    36      30.23
   6/22/2017 15:00      45          4      218        11    14.02    36      30.21
   6/22/2017 14:00      43          4      206        10    14.10    38      30.20
   6/22/2017 13:00      42          4      258        13    13.44    40      30.18
   6/22/2017 12:00      41          4      205        11    13.08    42      30.17
   6/22/2017 11:00      39          4      166         9    12.90    43      30.15
   6/22/2017 10:00      38          5      154        12    12.69    44      30.14
   6/22/2017 09:00      35          2       91        12    12.52    49      30.12
   6/22/2017 08:00      35          2      314        10    12.44    48      30.11
   6/22/2017 07:00      35          4      176        10    12.40    49      30.10
   6/22/2017 06:00      35          4      129         9    12.37    49      30.09
   6/22/2017 05:00      36          3      132        10    12.38    45      30.09
   6/22/2017 04:00      37          4      265        10    12.41    44      30.09
   6/22/2017 03:00      38          4      206        11    12.44    42      30.08
   6/22/2017 02:00      40          5      229        14    12.47    38      30.08
   6/22/2017 01:00      41          5      231        13    12.49    39      30.08
   6/21/2017 24:00      42         10      260        25    12.53    41      30.08
   6/21/2017 23:00      43          8      261        27    12.63    44      30.08
   6/21/2017 22:00      44          7      226        21    12.96    47      30.07
   6/21/2017 21:00      45         11      228        27    13.51    45      30.06
   6/21/2017 20:00      45         15      261        44    13.75    46      30.06
   6/21/2017 19:00      45         18      263        52    13.50    44      30.01
   6/21/2017 18:00      48         12      229        27    13.77    34      30.02


CLICK HERE TO VIEW GRAPH!!!